Time;durP1;ratioP1;P1;durP2;ratioP2;P2;SDS_P1;SDS_P2;PMS_P1;PMS_P2;Temp;Humidity;BMP_temperature;BMP_pressure;BME280_temperature;BME280_humidity;BME280_pressure;Samples;Min_cycle;Max_cycle;Signal;HPM_P1;HPM_P2
2022/09/01 00:01:19;;;;;;;20.80;9.07;;;;;;;24.80;63.17;100350.03;5073428;28;20139;-74
2022/09/01 00:03:51;;;;;;;25.38;8.65;;;;;;;24.83;62.91;100353.19;5073336;28;20082;-73
2022/09/01 00:06:21;;;;;;;29.70;9.73;;;;;;;24.81;62.95;100349.00;5055231;28;20401;-74
2022/09/01 00:08:48;;;;;;;17.73;9.32;;;;;;;24.88;62.67;100347.03;5073222;28;20063;-74
2022/09/01 00:11:14;;;;;;;30.98;9.25;;;;;;;24.90;62.41;100343.00;5073486;28;20094;-74
2022/09/01 00:13:39;;;;;;;19.15;9.80;;;;;;;24.88;62.43;100350.66;5073255;28;20444;-75
2022/09/01 00:16:05;;;;;;;26.17;9.57;;;;;;;24.87;62.63;100343.44;5088999;28;20178;-74
2022/09/01 00:18:31;;;;;;;17.88;9.20;;;;;;;24.84;62.46;100343.91;5073022;28;20469;-74
2022/09/01 00:20:58;;;;;;;18.48;9.55;;;;;;;24.86;62.62;100336.25;5055202;28;20038;-74
2022/09/01 00:23:26;;;;;;;19.60;9.55;;;;;;;24.86;62.20;100346.44;5072962;28;20441;-74
2022/09/01 00:25:52;;;;;;;18.35;9.18;;;;;;;24.87;62.14;100343.44;5072933;28;20507;-74
2022/09/01 00:28:17;;;;;;;18.25;9.95;;;;;;;24.81;62.25;100344.34;5072875;28;20032;-73
2022/09/01 00:30:43;;;;;;;29.55;10.55;;;;;;;24.74;62.42;100354.50;5072992;28;20494;-73
2022/09/01 00:33:08;;;;;;;30.85;10.80;;;;;;;24.74;62.50;100345.41;5072681;28;20559;-73
2022/09/01 00:35:33;;;;;;;23.00;9.07;;;;;;;24.76;62.60;100340.56;5072736;28;20047;-73
2022/09/01 00:37:59;;;;;;;31.23;10.20;;;;;;;24.74;62.40;100335.25;5071897;28;20465;-74
2022/09/01 00:40:24;;;;;;;25.27;8.90;;;;;;;24.71;62.35;100348.63;5059994;28;20499;-73
2022/09/01 00:42:50;;;;;;;25.63;9.48;;;;;;;24.63;62.56;100347.00;5071706;28;20482;-74
2022/09/01 00:45:16;;;;;;;23.85;9.75;;;;;;;24.60;62.59;100346.59;5072408;28;20032;-74
2022/09/01 00:47:41;;;;;;;29.08;10.65;;;;;;;24.54;62.80;100359.34;5071280;28;20520;-73
2022/09/01 00:50:10;;;;;;;12.73;8.75;;;;;;;24.55;63.01;100361.03;5071827;28;20037;-73
2022/09/01 00:52:41;;;;;;;22.10;9.32;;;;;;;24.50;62.84;100352.56;5072410;28;20031;-73
2022/09/01 00:55:15;;;;;;;15.60;9.23;;;;;;;24.46;63.18;100361.50;5072403;28;20043;-73
2022/09/01 00:57:41;;;;;;;21.13;9.82;;;;;;;24.50;63.26;100360.81;5072262;28;20040;-73
2022/09/01 01:00:14;;;;;;;30.23;9.52;;;;;;;24.56;63.25;100367.34;5072159;28;20055;-75
2022/09/01 01:02:41;;;;;;;23.55;10.52;;;;;;;24.55;63.12;100362.94;5071755;28;20028;-73
2022/09/01 01:05:07;;;;;;;26.27;10.20;;;;;;;24.45;63.45;100355.16;5054351;28;20398;-75
2022/09/01 01:07:42;;;;;;;23.17;10.40;;;;;;;24.43;63.19;100357.31;5072353;28;20036;-73
2022/09/01 01:10:10;;;;;;;21.55;9.85;;;;;;;24.43;63.27;100362.81;5072290;28;20040;-72
2022/09/01 01:12:39;;;;;;;21.38;9.73;;;;;;;24.46;63.16;100364.25;5072253;28;20166;-73
2022/09/01 01:15:07;;;;;;;18.70;8.77;;;;;;;24.39;63.22;100367.03;5072092;28;20515;-75
2022/09/01 01:17:33;;;;;;;17.20;9.57;;;;;;;24.34;63.43;100353.13;5071662;28;20102;-74
2022/09/01 01:23:01;;;;;;;19.85;8.40;;;;;;;24.27;63.68;100349.56;5072310;28;20105;-73
2022/09/01 01:25:41;;;;;;;10.40;8.15;;;;;;;24.16;63.93;100336.50;5071863;28;20044;-73
2022/09/01 01:28:22;;;;;;;16.13;8.50;;;;;;;24.19;63.84;100349.81;5072049;28;20037;-74
2022/09/01 01:31:00;;;;;;;21.55;9.20;;;;;;;24.08;64.11;100343.09;5072115;28;20043;-73
2022/09/01 01:33:29;;;;;;;28.67;8.32;;;;;;;24.07;64.51;100351.53;5072015;28;20458;-73
2022/09/01 01:35:56;;;;;;;16.67;8.63;;;;;;;23.99;64.24;100349.03;5071663;28;20041;-74
2022/09/01 01:38:22;;;;;;;22.02;9.10;;;;;;;24.00;64.36;100350.75;5054047;28;20067;-74
2022/09/01 01:40:50;;;;;;;15.20;9.27;;;;;;;23.98;64.64;100336.34;5071889;28;20479;-74
2022/09/01 01:43:18;;;;;;;14.18;8.02;;;;;;;24.05;64.70;100338.03;5071857;28;20425;-74
2022/09/01 01:45:47;;;;;;;17.35;9.35;;;;;;;24.06;64.25;100338.88;5071899;28;20111;-73
2022/09/01 01:48:14;;;;;;;15.60;7.80;;;;;;;24.05;64.35;100342.69;5071818;28;20039;-74
2022/09/01 01:50:41;;;;;;;12.20;7.75;;;;;;;24.02;64.21;100343.13;5071620;28;20040;-74
2022/09/01 01:53:07;;;;;;;13.85;7.15;;;;;;;24.02;64.46;100345.84;5071862;28;20109;-73
2022/09/01 01:55:33;;;;;;;12.93;7.38;;;;;;;24.02;64.14;100343.97;5071650;28;20032;-75
2022/09/01 01:57:59;;;;;;;16.13;8.43;;;;;;;24.05;64.20;100348.16;5071586;28;20087;-73
2022/09/01 02:00:33;;;;;;;17.58;8.25;;;;;;;23.93;64.65;100349.91;5071769;28;20032;-73
2022/09/01 02:02:59;;;;;;;28.02;7.93;;;;;;;23.97;64.34;100351.19;5053658;28;20035;-74
2022/09/01 02:05:30;;;;;;;16.00;7.75;;;;;;;23.93;64.26;100349.91;5071128;28;20510;-73
2022/09/01 02:08:00;;;;;;;19.98;7.40;;;;;;;23.90;64.47;100351.22;5071667;28;20089;-74
2022/09/01 02:10:29;;;;;;;16.75;9.20;;;;;;;23.88;64.69;100355.25;5071572;28;20043;-76
2022/09/01 02:13:06;;;;;;;13.77;8.30;;;;;;;23.87;64.67;100342.56;5069931;28;20028;-75
2022/09/01 02:15:38;;;;;;;14.75;7.82;;;;;;;23.84;64.15;100347.44;5071624;28;20125;-76
2022/09/01 02:18:05;;;;;;;16.52;7.85;;;;;;;23.81;64.35;100331.38;5071580;28;20040;-73
2022/09/01 02:20:31;;;;;;;21.67;7.65;;;;;;;23.81;64.68;100336.03;5069787;28;20056;-73
2022/09/01 02:22:57;;;;;;;22.80;7.65;;;;;;;23.76;64.50;100338.56;5071447;28;20032;-73
2022/09/01 02:25:23;;;;;;;15.85;7.88;;;;;;;23.63;64.98;100328.50;5071199;28;20044;-74
2022/09/01 02:27:54;;;;;;;13.93;7.25;;;;;;;23.70;64.71;100329.28;5071295;28;20040;-74
2022/09/01 02:30:25;;;;;;;12.30;7.55;;;;;;;23.71;64.84;100328.25;5056150;28;20498;-74
2022/09/01 02:32:50;;;;;;;19.73;8.30;;;;;;;23.73;64.78;100331.59;5075185;28;20032;-73
2022/09/01 02:35:17;;;;;;;21.00;8.57;;;;;;;23.74;64.52;100330.56;5064481;28;20033;-74
2022/09/01 02:37:48;;;;;;;14.43;7.57;;;;;;;23.70;64.33;100318.31;5055134;28;20487;-76
2022/09/01 02:40:14;;;;;;;16.52;7.72;;;;;;;23.62;64.75;100339.69;5054922;28;20043;-75
2022/09/01 02:42:42;;;;;;;25.33;7.40;;;;;;;23.53;64.97;100322.63;5054947;28;20039;-75
2022/09/01 02:45:10;;;;;;;21.35;8.60;;;;;;;23.50;64.79;100336.78;5055017;28;20071;-75
2022/09/01 02:47:40;;;;;;;15.80;8.20;;;;;;;23.42;65.44;100325.19;5055096;28;20379;-75
2022/09/01 02:50:12;;;;;;;12.93;8.50;;;;;;;23.45;65.36;100335.75;5066026;28;20494;-75
2022/09/01 02:52:39;;;;;;;14.95;8.73;;;;;;;23.44;65.35;100329.41;5057136;28;20071;-74
2022/09/01 02:55:06;;;;;;;21.60;7.88;;;;;;;23.45;65.17;100331.09;5064844;28;20029;-74
2022/09/01 02:57:33;;;;;;;19.73;8.07;;;;;;;23.43;65.29;100335.94;5064673;28;20658;-75
2022/09/01 02:59:59;;;;;;;17.50;8.30;;;;;;;23.52;65.08;100342.88;5074762;28;20090;-75
2022/09/01 03:02:27;;;;;;;17.13;9.10;;;;;;;23.56;64.74;100332.31;5074502;28;20032;-75
2022/09/01 03:04:54;;;;;;;18.13;8.57;;;;;;;23.59;64.59;100334.63;5074454;28;20070;-75
2022/09/01 03:07:22;;;;;;;18.58;8.35;;;;;;;23.63;64.54;100328.50;5074577;28;20051;-75
2022/09/01 03:09:48;;;;;;;28.75;8.82;;;;;;;23.53;64.50;100335.50;5074545;28;20037;-74
2022/09/01 03:12:14;;;;;;;15.07;7.50;;;;;;;23.59;64.53;100334.63;5074497;28;20036;-74
2022/09/01 03:14:40;;;;;;;14.38;7.10;;;;;;;23.55;64.45;100339.69;5074418;28;20108;-75
2022/09/01 03:17:05;;;;;;;17.83;7.55;;;;;;;23.56;64.04;100319.44;5074451;28;20043;-73
2022/09/01 03:19:38;;;;;;;32.05;7.68;;;;;;;23.37;64.18;100334.03;5073951;28;20111;-73
2022/09/01 03:22:04;;;;;;;15.38;8.00;;;;;;;23.26;64.68;100338.28;5074322;28;20116;-76
2022/09/01 03:24:31;;;;;;;14.68;9.75;;;;;;;23.18;65.06;100337.63;5073816;28;20104;-75
2022/09/01 03:26:56;;;;;;;13.63;7.57;;;;;;;23.18;64.91;100346.72;5074350;28;20037;-73
2022/09/01 03:29:21;;;;;;;20.08;8.75;;;;;;;23.21;64.98;100345.44;5074229;28;20040;-76
2022/09/01 03:31:47;;;;;;;14.60;7.88;;;;;;;23.25;64.63;100349.47;5056114;28;20101;-75
2022/09/01 03:34:15;;;;;;;16.63;7.90;;;;;;;23.27;64.46;100339.13;5073553;28;20048;-75
2022/09/01 03:36:48;;;;;;;17.50;7.85;;;;;;;23.32;64.20;100347.56;5073925;28;20521;-76
2022/09/01 03:39:15;;;;;;;15.52;8.48;;;;;;;23.30;64.14;100349.69;5073723;28;20024;-76
2022/09/01 03:41:41;;;;;;;10.25;7.65;;;;;;;23.33;64.00;100342.91;5073310;28;20038;-74
2022/09/01 03:44:09;;;;;;;12.73;7.88;;;;;;;23.29;63.90;100342.50;5073759;28;20051;-75
2022/09/01 03:46:34;;;;;;;12.48;8.20;;;;;;;23.24;64.07;100340.38;5073603;28;20090;-75
2022/09/01 03:49:02;;;;;;;13.02;8.05;;;;;;;23.22;64.02;100330.69;5073399;28;20032;-76
2022/09/01 03:51:29;;;;;;;14.88;7.63;;;;;;;23.19;63.95;100331.09;5073886;28;20068;-75
2022/09/01 03:53:56;;;;;;;14.35;8.25;;;;;;;23.16;63.69;100337.03;5073209;28;20029;-73
2022/09/01 03:56:26;;;;;;;20.20;8.40;;;;;;;23.14;63.90;100339.16;5072109;28;20044;-74
2022/09/01 03:58:53;;;;;;;17.48;7.85;;;;;;;23.12;63.68;100333.00;5073599;28;20555;-76
2022/09/01 04:01:19;;;;;;;23.08;8.10;;;;;;;23.11;63.94;100343.16;5073099;28;20406;-76
2022/09/01 04:03:48;;;;;;;15.43;7.20;;;;;;;23.08;63.79;100343.59;5073383;28;20029;-74
2022/09/01 04:06:17;;;;;;;22.20;9.32;;;;;;;23.06;63.45;100331.13;5073332;28;20418;-75
2022/09/01 04:08:44;;;;;;;15.73;7.93;;;;;;;23.11;63.18;100336.81;5073414;28;20398;-76
2022/09/01 04:11:15;;;;;;;16.33;7.72;;;;;;;23.06;63.52;100336.59;5055125;28;20444;-77
2022/09/01 04:13:41;;;;;;;12.10;7.53;;;;;;;23.12;62.94;100346.72;5071401;28;20025;-76
2022/09/01 04:18:04;;;;;;;13.02;8.35;;;;;;;23.08;63.19;100359.19;5072164;28;20040;-76
2022/09/01 04:19:14;;;;;;;23.60;8.68;;;;;;;23.02;63.63;100352.66;5070735;28;20037;-75
2022/09/01 04:21:41;;;;;;;26.30;8.13;;;;;;;23.01;63.78;100361.09;5072752;28;20032;-75
2022/09/01 04:24:09;;;;;;;45.13;10.38;;;;;;;23.11;63.45;100361.53;5072744;28;20048;-75
2022/09/01 04:26:37;;;;;;;20.33;8.38;;;;;;;23.13;63.26;100353.91;5072741;28;20145;-76
2022/09/01 04:29:02;;;;;;;21.40;8.43;;;;;;;23.17;63.22;100355.19;5072361;28;20052;-76
2022/09/01 04:31:30;;;;;;;14.40;8.15;;;;;;;23.24;62.61;100345.00;5072188;28;20047;-74
2022/09/01 04:33:55;;;;;;;13.55;7.60;;;;;;;23.20;62.75;100354.75;5072517;28;20029;-74
2022/09/01 04:36:24;;;;;;;27.92;9.38;;;;;;;23.25;62.73;100352.19;5072402;28;20046;-73
2022/09/01 04:38:54;;;;;;;16.80;7.20;;;;;;;23.25;62.82;100349.47;5072230;28;20098;-73
2022/09/01 04:41:24;;;;;;;19.88;8.52;;;;;;;23.29;62.68;100353.47;5072128;28;20059;-74
2022/09/01 04:43:55;;;;;;;25.67;9.27;;;;;;;23.34;62.28;100348.16;5072233;28;20056;-73
2022/09/01 04:46:22;;;;;;;25.50;8.80;;;;;;;23.33;62.60;100346.50;5072150;28;20036;-74
2022/09/01 04:48:51;;;;;;;13.48;6.70;;;;;;;23.37;62.22;100345.00;5072180;28;20050;-73
2022/09/01 04:51:18;;;;;;;21.85;7.82;;;;;;;23.46;61.97;100343.75;5071742;28;20394;-74
2022/09/01 04:53:47;;;;;;;17.23;7.45;;;;;;;23.52;61.72;100351.13;5071308;28;20056;-74
2022/09/01 04:56:14;;;;;;;17.25;7.35;;;;;;;23.55;61.79;100356.19;5072408;28;20048;-73
2022/09/01 04:58:39;;;;;;;15.75;8.15;;;;;;;23.64;61.45;100352.13;5071931;28;20494;-73
2022/09/01 05:01:16;;;;;;;27.00;8.35;;;;;;;23.69;61.66;100359.75;5072033;28;20041;-74
2022/09/01 05:03:44;;;;;;;15.75;7.97;;;;;;;23.76;61.37;100360.53;5071633;28;20032;-74
2022/09/01 05:06:17;;;;;;;12.55;7.47;;;;;;;23.78;61.28;100347.44;5071870;28;20513;-73
2022/09/01 05:08:46;;;;;;;18.60;8.25;;;;;;;23.85;61.23;100354.59;5071849;28;20071;-73
2022/09/01 05:11:16;;;;;;;13.52;7.90;;;;;;;23.92;60.86;100359.22;5071496;28;20063;-73
2022/09/01 05:13:46;;;;;;;15.65;7.63;;;;;;;23.98;60.97;100353.69;5071678;28;20102;-73
2022/09/01 05:16:15;;;;;;;23.73;8.57;;;;;;;23.97;60.73;100352.03;5071601;28;20036;-73
2022/09/01 05:18:46;;;;;;;13.77;8.15;;;;;;;24.05;60.77;100356.41;5071277;28;20106;-73
2022/09/01 05:21:14;;;;;;;20.38;7.82;;;;;;;24.12;60.71;100355.38;5071754;28;20078;-73
2022/09/01 05:23:41;;;;;;;14.90;8.07;;;;;;;24.17;60.52;100363.78;5071326;28;20083;-73
2022/09/01 05:26:18;;;;;;;21.63;8.07;;;;;;;24.27;60.34;100352.31;5071251;28;20048;-77
2022/09/01 05:28:45;;;;;;;23.15;8.82;;;;;;;24.37;60.41;100348.00;5071550;28;20040;-77
2022/09/01 05:31:11;;;;;;;16.17;8.13;;;;;;;24.39;60.44;100345.06;5069600;28;20040;-74
2022/09/01 05:33:44;;;;;;;22.90;7.88;;;;;;;24.56;59.87;100350.84;5071439;28;20028;-75
2022/09/01 05:36:10;;;;;;;;;;;;;;;24.64;59.82;100350.59;5071892;28;20044;-79
2022/09/01 05:38:36;;;;;;;20.90;7.30;;;;;;;24.69;59.60;100342.50;5071858;28;19913;-82
2022/09/01 05:41:07;;;;;;;17.27;6.88;;;;;;;24.70;59.51;100334.03;5071761;28;20166;-79
2022/09/01 05:43:34;;;;;;;21.35;7.75;;;;;;;24.82;59.41;100345.19;5070922;28;20032;-78
2022/09/01 05:46:05;;;;;;;40.83;9.07;;;;;;;24.86;59.33;100338.19;5071610;28;20521;-78
2022/09/01 05:48:30;;;;;;;25.98;6.78;;;;;;;24.95;59.13;100338.72;5071896;28;20066;-81
2022/09/01 05:50:58;;;;;;;14.38;8.43;;;;;;;24.97;58.95;100333.84;5075162;28;20036;-85
2022/09/01 05:53:24;;;;;;;19.05;6.80;;;;;;;25.11;58.61;100346.41;5072646;28;20036;-81
2022/09/01 05:55:55;;;;;;;14.68;7.13;;;;;;;25.25;58.46;100361.75;5053924;28;20395;-84
2022/09/01 05:58:24;;;;;;;17.20;6.55;;;;;;;25.29;58.11;100351.94;5072407;28;20147;-79
2022/09/01 06:00:53;;;;;;;15.95;7.82;;;;;;;25.35;58.44;100351.88;5072087;28;20036;-81
2022/09/01 06:03:20;;;;;;;82.68;12.02;;;;;;;25.47;58.13;100348.38;5058403;28;20045;-81
2022/09/01 06:05:51;;;;;;;14.98;6.68;;;;;;;25.49;57.73;100349.88;5043327;28;20036;-80
2022/09/01 06:08:19;;;;;;;11.60;7.40;;;;;;;25.53;57.28;100351.09;5048063;28;20406;-81
2022/09/01 06:10:45;;;;;;;23.23;7.65;;;;;;;25.64;57.34;100363.25;5049355;28;20041;-75
2022/09/01 06:13:14;;;;;;;73.38;11.35;;;;;;;25.74;57.43;100356.16;5016517;28;20182;-75
2022/09/01 06:15:39;;;;;;;28.60;10.68;;;;;;;25.85;56.97;100360.03;5050758;28;20028;-75
2022/09/01 06:18:10;;;;;;;35.92;9.57;;;;;;;25.88;56.98;100363.19;5037306;28;20131;-76
2022/09/01 06:20:39;;;;;;;26.30;9.98;;;;;;;25.97;56.86;100364.53;5064267;28;20433;-76
2022/09/01 06:23:05;;;;;;;17.73;7.40;;;;;;;26.09;56.66;100363.75;5071001;28;20056;-75
2022/09/01 06:25:43;;;;;;;18.10;6.72;;;;;;;26.11;56.85;100368.00;5053716;28;20501;-76
2022/09/01 06:28:10;;;;;;;17.73;6.57;;;;;;;26.20;56.81;100363.03;5054357;28;20490;-76
2022/09/01 06:30:37;;;;;;;14.23;7.88;;;;;;;26.23;56.43;100368.06;5061268;28;20112;-76
2022/09/01 06:33:08;;;;;;;25.92;9.13;;;;;;;26.34;56.25;100367.25;5050854;28;20177;-77
2022/09/01 06:35:34;;;;;;;15.30;7.20;;;;;;;26.45;56.13;100377.53;5050693;28;20075;-75
2022/09/01 06:38:01;;;;;;;20.08;7.38;;;;;;;26.57;55.63;100372.88;5050881;28;20390;-76
2022/09/01 06:40:27;;;;;;;27.65;7.90;;;;;;;26.64;55.43;100375.50;5050611;28;20394;-76
2022/09/01 06:42:54;;;;;;;26.27;7.68;;;;;;;26.73;55.50;100379.63;5016401;28;20143;-76
2022/09/01 06:45:23;;;;;;;18.15;8.05;;;;;;;26.73;55.30;100380.47;5033876;28;20045;-82
2022/09/01 06:47:51;;;;;;;13.00;6.93;;;;;;;26.80;55.38;100372.13;5036051;28;20040;-84
2022/09/01 06:50:20;;;;;;;17.88;7.57;;;;;;;26.87;55.00;100379.22;5035770;28;20044;-83
2022/09/01 06:53:09;;;;;;;36.17;9.07;;;;;;;26.86;55.21;100380.28;5033918;28;20040;-80
2022/09/01 06:55:37;;;;;;;18.80;7.00;;;;;;;26.92;54.97;100382.09;5050813;28;20051;-79
2022/09/01 06:58:08;;;;;;;39.78;8.95;;;;;;;27.01;54.77;100383.44;5060486;28;20037;-80
2022/09/01 07:00:41;;;;;;;15.13;7.50;;;;;;;27.10;54.97;100381.16;5070604;28;20037;-79
2022/09/01 07:03:12;;;;;;;19.98;7.82;;;;;;;27.19;54.34;100393.53;5070323;28;20039;-78
2022/09/01 07:05:48;;;;;;;19.27;6.90;;;;;;;27.19;54.29;100384.41;5053036;28;20544;-79
2022/09/01 07:08:20;;;;;;;20.30;7.32;;;;;;;27.29;54.24;100381.91;5052572;28;20050;-78
2022/09/01 07:10:54;;;;;;;22.45;7.65;;;;;;;27.30;54.34;100378.06;5052297;28;20028;-79
2022/09/01 07:13:24;;;;;;;17.20;7.45;;;;;;;27.38;54.67;100373.00;5068605;28;20131;-80
2022/09/01 07:15:52;;;;;;;20.38;8.68;;;;;;;27.42;54.14;100367.84;5054839;28;20414;-83
2022/09/01 07:18:25;;;;;;;21.85;7.55;;;;;;;27.53;53.84;100378.06;5058254;28;20041;-79
2022/09/01 07:20:53;;;;;;;16.38;7.15;;;;;;;27.59;53.77;100379.88;5073289;28;20508;-82
2022/09/01 07:23:20;;;;;;;24.95;8.05;;;;;;;27.65;53.48;100378.91;5074931;28;20036;-79
2022/09/01 07:25:49;;;;;;;47.92;9.05;;;;;;;27.73;53.84;100377.72;5076944;28;20570;-85
2022/09/01 07:28:16;;;;;;;25.00;7.35;;;;;;;27.81;53.23;100385.63;5075220;28;20036;-78
2022/09/01 07:30:47;;;;;;;27.48;7.40;;;;;;;27.85;52.96;100386.81;5056186;28;20040;-80
2022/09/01 07:33:19;;;;;;;15.57;6.47;;;;;;;27.83;52.73;100383.44;5073508;28;20028;-77
2022/09/01 07:35:48;;;;;;;30.85;8.27;;;;;;;27.85;52.95;100378.53;5055538;28;20032;-82
2022/09/01 07:38:17;;;;;;;23.20;7.65;;;;;;;28.02;53.07;100388.56;5055113;28;20059;-78
2022/09/01 07:40:44;;;;;;;17.15;7.55;;;;;;;28.07;53.11;100385.94;5071516;28;20452;-77
2022/09/01 07:43:23;;;;;;;15.63;7.35;;;;;;;28.17;52.37;100385.31;5037913;28;20036;-75
2022/09/01 07:45:56;;;;;;;17.42;6.70;;;;;;;28.26;52.05;100394.06;5073733;28;20040;-81
2022/09/01 07:48:24;;;;;;;17.08;7.32;;;;;;;28.30;51.91;100395.25;5055890;28;20033;-79
2022/09/01 07:50:54;;;;;;;16.67;7.53;;;;;;;28.20;51.64;100389.50;5056298;28;20093;-79
2022/09/01 07:53:24;;;;;;;18.25;7.70;;;;;;;28.28;52.06;100398.28;5076865;28;20103;-82
2022/09/01 07:55:52;;;;;;;15.25;7.18;;;;;;;28.36;51.23;100394.25;5075050;28;20033;-80
2022/09/01 07:58:25;;;;;;;8.18;6.50;;;;;;;28.48;51.05;100389.53;5074340;28;20113;-79
2022/09/01 08:00:53;;;;;;;34.00;8.38;;;;;;;28.55;50.50;100388.28;5072830;28;20031;-77
2022/09/01 08:03:21;;;;;;;29.95;7.40;;;;;;;28.63;49.94;100395.34;5053893;28;20036;-78
2022/09/01 08:05:52;;;;;;;12.95;7.60;;;;;;;28.67;49.88;100390.19;5074296;28;20098;-82
2022/09/01 08:08:19;;;;;;;18.60;7.90;;;;;;;28.76;49.97;100374.84;5077497;28;20035;-84
2022/09/01 08:10:47;;;;;;;19.63;7.88;;;;;;;28.85;49.63;100388.03;5074794;28;20089;-83
2022/09/01 08:13:13;;;;;;;19.42;6.95;;;;;;;28.86;49.10;100381.41;5055793;28;20044;-80
2022/09/01 08:15:39;;;;;;;25.88;7.60;;;;;;;28.85;49.12;100381.66;5075737;28;20032;-84
2022/09/01 08:18:05;;;;;;;14.70;7.15;;;;;;;28.94;49.16;100381.00;5073886;28;20032;-80
2022/09/01 08:20:36;;;;;;;18.33;7.28;;;;;;;29.03;48.62;100379.47;5074400;28;20032;-80
2022/09/01 08:23:02;;;;;;;14.18;6.60;;;;;;;29.12;48.71;100379.91;5052775;28;20036;-78
2022/09/01 08:25:29;;;;;;;18.45;6.75;;;;;;;29.14;48.29;100375.78;5056286;28;20102;-80
2022/09/01 08:27:55;;;;;;;22.48;7.22;;;;;;;29.15;48.30;100380.25;5075306;28;20070;-80
2022/09/01 08:30:22;;;;;;;18.85;6.47;;;;;;;29.13;48.22;100384.34;5073860;28;20642;-78
2022/09/01 08:32:49;;;;;;;19.38;8.05;;;;;;;29.28;47.66;100375.47;5054472;28;20062;-79
2022/09/01 08:35:15;;;;;;;18.50;8.52;;;;;;;29.35;47.71;100370.59;5070874;28;20049;-77
2022/09/01 08:37:41;;;;;;;23.23;7.00;;;;;;;29.34;47.09;100368.91;5071400;28;20468;-79
2022/09/01 08:40:12;;;;;;;21.23;7.22;;;;;;;29.44;47.56;100366.31;5072636;28;20072;-79
2022/09/01 08:43:06;;;;;;;26.30;9.32;;;;;;;29.46;47.58;100364.97;5071505;28;20033;-78
2022/09/01 08:45:39;;;;;;;22.85;7.10;;;;;;;29.58;46.88;100353.75;5067941;28;20520;-78
2022/09/01 08:48:14;;;;;;;13.82;6.57;;;;;;;29.60;47.19;100354.38;5071622;28;20067;-79
2022/09/01 08:50:45;;;;;;;22.85;7.03;;;;;;;29.64;47.62;100358.28;5054929;28;20078;-86
2022/09/01 08:53:31;;;;;;;19.08;8.57;;;;;;;29.71;47.65;100350.63;5074763;28;20047;-81
2022/09/01 08:56:00;;;;;;;18.23;6.90;;;;;;;29.79;46.00;100347.38;5057386;28;20036;-85
2022/09/01 08:58:31;;;;;;;19.65;6.45;;;;;;;29.79;46.13;100349.31;5070805;28;20129;-86
2022/09/01 09:01:31;;;;;;;24.05;8.32;;;;;;;29.92;46.37;100344.28;5058068;28;20083;-87
2022/09/01 09:04:46;;;;;;;19.63;7.60;;;;;;;30.01;45.85;100337.16;5067372;28;20036;-90
2022/09/01 09:07:37;;;;;;;15.02;7.68;;;;;;;30.05;46.16;100338.34;5059725;28;20570;-89
2022/09/01 09:10:09;;;;;;;21.10;7.13;;;;;;;30.20;45.99;100334.91;5075968;28;20044;-86
2022/09/01 09:12:50;;;;;;;15.38;6.53;;;;;;;30.16;45.07;100331.78;5064876;28;20040;-84
2022/09/01 09:15:56;;;;;;;12.35;7.00;;;;;;;30.37;44.46;100337.56;5075303;28;20033;-88
2022/09/01 09:18:49;;;;;;;21.83;8.95;;;;;;;30.23;47.05;100346.31;5066138;28;20044;-88
2022/09/01 09:21:23;;;;;;;22.95;7.70;;;;;;;30.18;47.02;100326.00;5072511;28;20036;-81
2022/09/01 09:24:13;;;;;;;20.05;7.45;;;;;;;30.34;47.28;100335.31;5073517;28;20032;-83
2022/09/01 09:26:39;;;;;;;16.65;7.38;;;;;;;30.35;47.06;100328.66;5038936;28;20041;-86
2022/09/01 09:29:04;;;;;;;25.55;7.28;;;;;;;30.36;46.24;100322.03;5057820;28;20033;-86
2022/09/01 09:31:46;;;;;;;29.35;8.68;;;;;;;30.44;46.64;100324.34;5075737;28;20028;-89
2022/09/01 09:34:37;;;;;;;23.05;8.23;;;;;;;30.43;46.35;100319.88;5055276;28;20052;-81
2022/09/01 09:37:27;;;;;;;22.55;8.25;;;;;;;30.51;46.54;100322.22;5056311;28;20040;-87
2022/09/01 09:40:16;;;;;;;13.18;6.85;;;;;;;30.51;46.71;100316.66;5071420;28;20052;-81
2022/09/01 09:43:06;;;;;;;19.70;7.47;;;;;;;30.59;46.06;100316.16;5073241;28;20494;-79
2022/09/01 09:45:39;;;;;;;23.63;6.82;;;;;;;30.67;46.15;100315.72;5075440;28;20040;-91
2022/09/01 09:48:26;;;;;;;29.67;8.20;;;;;;;30.76;46.26;100311.34;5058057;28;20501;-86
2022/09/01 09:50:52;;;;;;;18.40;7.13;;;;;;;30.83;46.37;100320.28;5060649;28;20039;-87
2022/09/01 09:53:28;;;;;;;31.55;7.55;;;;;;;30.81;47.78;100316.94;5077093;28;20046;-88
2022/09/01 09:56:16;;;;;;;20.95;6.60;;;;;;;30.85;48.19;100318.09;5097643;28;20089;-91
2022/09/01 09:58:46;;;;;;;20.60;7.28;;;;;;;30.75;48.31;100316.06;5092757;28;20051;-86
2022/09/01 10:01:24;;;;;;;17.55;7.50;;;;;;;30.72;48.35;100313.81;5096543;28;20066;-92
2022/09/01 10:03:54;;;;;;;26.27;7.18;;;;;;;30.71;48.37;100311.28;5056786;28;20032;-84
2022/09/01 10:06:31;;;;;;;17.88;7.85;;;;;;;30.65;49.14;100304.00;5058926;28;20041;-92
2022/09/01 10:09:09;;;;;;;11.02;6.45;;;;;;;30.67;49.31;100307.38;5072235;28;20051;-89
2022/09/01 10:11:54;;;;;;;12.52;6.00;;;;;;;30.84;49.49;100302.50;5064023;28;20063;-91
2022/09/01 10:15:09;;;;;;;25.70;8.20;;;;;;;30.84;50.41;100308.06;5066920;28;20105;-84
2022/09/01 10:17:40;;;;;;;23.52;7.82;;;;;;;31.01;50.43;100303.22;4999637;28;20504;-87
2022/09/01 10:20:16;;;;;;;23.20;7.25;;;;;;;31.06;50.46;100305.22;5031817;28;20052;-83
2022/09/01 10:22:42;;;;;;;24.35;6.88;;;;;;;31.00;50.78;100307.13;5075032;28;20069;-77
2022/09/01 10:25:15;;;;;;;20.60;6.30;;;;;;;31.07;50.06;100318.81;5056455;28;20041;-77
2022/09/01 10:27:45;;;;;;;18.25;6.90;;;;;;;31.06;49.33;100310.78;5052651;28;20037;-79
2022/09/01 10:30:13;;;;;;;16.88;7.07;;;;;;;31.07;49.96;100318.81;5070686;28;20093;-78
2022/09/01 10:32:45;;;;;;;21.85;7.03;;;;;;;31.12;50.08;100304.13;5052336;28;20028;-82
2022/09/01 10:35:35;;;;;;;20.33;7.30;;;;;;;31.16;50.19;100316.41;5070461;28;20547;-79
2022/09/01 10:38:08;;;;;;;23.08;6.90;;;;;;;31.35;50.40;100308.44;5053100;28;20052;-79
2022/09/01 10:41:06;;;;;;;25.08;6.70;;;;;;;31.42;52.43;100309.03;5070425;28;20044;-80
2022/09/01 10:43:41;;;;;;;29.35;6.53;;;;;;;31.26;53.08;100305.34;5044407;28;20040;-79
2022/09/01 10:46:33;;;;;;;33.97;8.68;;;;;;;31.39;53.61;100309.59;5067609;28;20044;-80
2022/09/01 10:49:14;;;;;;;25.45;6.90;;;;;;;31.33;54.21;100310.66;5064703;28;20040;-79
2022/09/01 10:51:43;;;;;;;20.63;7.30;;;;;;;31.30;55.31;100306.47;5073247;28;20032;-80
2022/09/01 10:54:28;;;;;;;37.10;7.70;;;;;;;31.37;54.89;100300.69;5073409;28;20037;-78
2022/09/01 10:56:55;;;;;;;26.88;7.50;;;;;;;31.51;54.01;100307.47;5080445;28;20040;-90
2022/09/01 10:59:21;;;;;;;17.15;6.85;;;;;;;31.45;54.03;100314.06;5062724;28;20070;-93
2022/09/01 11:01:47;;;;;;;14.13;7.00;;;;;;;31.39;54.06;100304.88;5066769;28;20084;-85
2022/09/01 11:04:18;;;;;;;27.83;7.90;;;;;;;31.53;54.21;100310.84;5074777;28;20067;-85
2022/09/01 11:06:57;;;;;;;15.52;6.15;;;;;;;31.49;54.06;100310.53;5074165;28;20128;-88
2022/09/01 11:09:25;;;;;;;22.20;8.15;;;;;;;31.28;54.49;100301.19;5056931;28;20478;-82
2022/09/01 11:12:01;;;;;;;15.13;6.97;;;;;;;31.28;54.89;100308.72;5054415;28;20029;-79
2022/09/01 11:15:02;;;;;;;20.38;8.05;;;;;;;30.98;55.84;100300.97;5040219;28;20043;-88
2022/09/01 11:17:38;;;;;;;34.45;7.60;;;;;;;30.81;56.26;100307.75;5047179;28;20037;-89
2022/09/01 11:20:30;;;;;;;20.35;7.55;;;;;;;30.62;56.04;100298.97;5021797;28;20077;-89
2022/09/01 11:23:25;;;;;;;30.80;9.60;;;;;;;30.50;56.46;100287.22;5039605;28;20038;-87
2022/09/01 11:25:55;;;;;;;18.25;7.97;;;;;;;30.69;56.87;100296.84;5039257;28;20330;-85
2022/09/01 11:28:38;;;;;;;21.35;7.60;;;;;;;30.76;56.81;100308.56;5040197;28;20052;-91
2022/09/01 11:31:09;;;;;;;23.83;7.90;;;;;;;30.60;57.22;100299.25;5053166;28;20048;-87
2022/09/01 11:34:09;;;;;;;25.52;8.60;;;;;;;30.50;57.97;100301.94;5062179;28;20110;-92
2022/09/01 11:36:47;;;;;;;25.83;9.55;;;;;;;30.40;58.53;100306.53;5038579;28;20132;-79
2022/09/01 11:39:25;;;;;;;17.13;7.18;;;;;;;30.44;58.67;100307.69;5053281;28;20041;-82